Time;durP1;ratioP1;P1;durP2;ratioP2;P2;SDS_P1;SDS_P2;PMS_P1;PMS_P2;Temp;Humidity;BMP_temperature;BMP_pressure;BME280_temperature;BME280_humidity;BME280_pressure;Samples;Min_cycle;Max_cycle;Signal;HPM_P1;HPM_P2
2024/01/10 00:02:21;;;;;;;13.37;7.17;;;10.80;47.00;;;;;;5061538;28;20457;-75
2024/01/10 00:04:50;;;;;;;10.43;6.03;;;10.70;47.00;;;;;;5074337;28;20435;-75
2024/01/10 00:07:18;;;;;;;11.20;5.93;;;10.80;46.90;;;;;;5073209;28;20426;-77
2024/01/10 00:09:46;;;;;;;11.57;6.80;;;10.80;47.20;;;;;;5072651;28;20445;-76
2024/01/10 00:12:15;;;;;;;10.57;5.93;;;10.70;46.90;;;;;;5072005;28;20462;-75
2024/01/10 00:14:44;;;;;;;11.00;5.97;;;10.70;46.90;;;;;;5072253;28;20495;-78
2024/01/10 00:17:11;;;;;;;11.60;6.80;;;10.70;47.10;;;;;;5071418;28;20501;-75
2024/01/10 00:19:40;;;;;;;13.17;6.90;;;10.70;47.00;;;;;;5072687;28;20839;-76
2024/01/10 00:22:08;;;;;;;11.23;6.80;;;10.70;46.90;;;;;;5071560;28;20505;-76
2024/01/10 00:24:36;;;;;;;10.53;6.30;;;10.70;46.90;;;;;;5072304;28;20449;-75
2024/01/10 00:27:05;;;;;;;12.20;6.40;;;10.60;47.00;;;;;;5071037;28;20441;-75
2024/01/10 00:29:35;;;;;;;11.20;6.00;;;10.60;47.00;;;;;;5071963;28;20495;-77
2024/01/10 00:32:03;;;;;;;10.40;6.03;;;10.60;47.00;;;;;;5071888;28;20462;-78
2024/01/10 00:34:31;;;;;;;10.20;5.90;;;10.60;46.80;;;;;;5072049;28;20446;-77
2024/01/10 00:36:59;;;;;;;9.17;5.90;;;10.60;46.90;;;;;;5071696;28;20574;-77
2024/01/10 00:39:27;;;;;;;11.27;7.00;;;10.60;46.90;;;;;;5072032;28;20453;-77
2024/01/10 00:41:56;;;;;;;9.63;6.57;;;10.60;46.90;;;;;;5071005;28;20501;-78
2024/01/10 00:44:24;;;;;;;13.73;6.40;;;10.60;47.00;;;;;;5071932;28;20472;-77
2024/01/10 00:46:54;;;;;;;9.70;6.10;;;10.50;46.80;;;;;;5071944;28;21011;-77
2024/01/10 00:49:22;;;;;;;8.67;5.40;;;10.50;46.80;;;;;;5071758;28;20493;-78
2024/01/10 00:51:50;;;;;;;9.33;6.17;;;10.50;46.80;;;;;;5069361;28;20469;-77
2024/01/10 00:54:17;;;;;;;11.93;6.20;;;10.50;46.90;;;;;;5067680;28;20446;-77
2024/01/10 00:56:45;;;;;;;12.53;6.37;;;10.50;46.90;;;;;;5067276;28;20528;-78
2024/01/10 00:59:13;;;;;;;12.60;5.60;;;10.50;47.00;;;;;;5070508;28;20481;-76
2024/01/10 01:01:42;;;;;;;10.43;6.07;;;10.50;46.90;;;;;;5070690;28;20468;-77
2024/01/10 01:04:11;;;;;;;7.90;5.50;;;10.50;46.90;;;;;;5071170;28;20514;-77
2024/01/10 01:06:39;;;;;;;9.10;5.87;;;10.50;46.90;;;;;;5071174;28;20465;-77
2024/01/10 01:09:07;;;;;;;7.10;5.60;;;10.50;47.00;;;;;;5071416;28;20537;-77
2024/01/10 01:11:35;;;;;;;8.30;5.70;;;10.40;47.00;;;;;;5071177;28;20430;-76
2024/01/10 01:14:03;;;;;;;12.30;5.50;;;10.40;46.90;;;;;;5063108;28;20469;-78
2024/01/10 01:16:31;;;;;;;9.20;5.50;;;10.40;47.00;;;;;;5070844;28;21018;-78
2024/01/10 01:18:59;;;;;;;8.90;5.43;;;10.40;47.10;;;;;;5069616;28;20445;-77
2024/01/10 01:21:28;;;;;;;9.77;6.57;;;10.40;46.90;;;;;;5069986;28;20452;-77
2024/01/10 01:23:56;;;;;;;10.00;6.10;;;10.40;47.00;;;;;;5071170;28;20521;-77
2024/01/10 01:26:24;;;;;;;7.53;5.03;;;10.40;47.00;;;;;;5070814;28;20433;-77
2024/01/10 01:28:52;;;;;;;8.90;5.70;;;10.40;47.10;;;;;;5068799;28;20457;-77
2024/01/10 01:31:20;;;;;;;9.93;5.87;;;10.30;46.90;;;;;;5070329;28;20445;-77
2024/01/10 01:33:48;;;;;;;7.10;5.40;;;10.30;47.00;;;;;;5071239;28;20975;-77
2024/01/10 01:36:16;;;;;;;7.70;5.47;;;10.30;47.00;;;;;;5070686;28;20563;-77
2024/01/10 01:38:46;;;;;;;9.80;5.40;;;10.30;47.00;;;;;;5070895;28;20469;-77
2024/01/10 01:41:14;;;;;;;8.33;5.80;;;10.30;47.00;;;;;;5070252;28;20481;-77
2024/01/10 01:43:43;;;;;;;8.00;5.37;;;10.30;46.90;;;;;;5070993;28;20473;-77
2024/01/10 01:46:12;;;;;;;7.90;5.40;;;10.30;47.10;;;;;;5070004;28;21051;-77
2024/01/10 01:48:40;;;;;;;7.80;5.53;;;10.30;47.10;;;;;;5069950;28;20446;-77
2024/01/10 01:51:08;;;;;;;9.87;5.90;;;10.20;47.00;;;;;;5070053;28;20441;-77
2024/01/10 01:53:36;;;;;;;9.60;5.73;;;10.20;47.00;;;;;;5070608;28;20515;-77
2024/01/10 01:56:07;;;;;;;7.73;5.40;;;10.20;47.00;;;;;;5064774;28;20443;-77
2024/01/10 01:58:35;;;;;;;11.03;5.33;;;10.20;46.90;;;;;;5062382;28;20434;-77
2024/01/10 02:01:04;;;;;;;12.00;5.67;;;10.20;47.00;;;;;;5070466;28;20438;-78
2024/01/10 02:03:33;;;;;;;10.63;5.60;;;10.20;46.90;;;;;;5070460;28;20477;-78
2024/01/10 02:06:03;;;;;;;9.10;5.90;;;10.20;47.10;;;;;;5074694;28;20533;-77
2024/01/10 02:08:32;;;;;;;8.13;5.53;;;10.20;47.00;;;;;;5074623;28;20465;-76
2024/01/10 02:11:00;;;;;;;8.07;5.47;;;10.20;47.00;;;;;;5074011;28;20530;-77
2024/01/10 02:13:29;;;;;;;10.17;5.70;;;10.20;47.10;;;;;;5074117;28;20523;-78
2024/01/10 02:15:57;;;;;;;7.83;5.60;;;10.20;47.10;;;;;;5074419;28;20525;-77
2024/01/10 02:18:25;;;;;;;8.20;5.90;;;10.20;46.90;;;;;;5070674;28;20553;-77
2024/01/10 02:20:53;;;;;;;8.20;5.83;;;10.10;47.00;;;;;;5073154;28;20449;-76
2024/01/10 02:23:21;;;;;;;8.60;5.20;;;10.10;47.00;;;;;;5073896;28;20493;-77
2024/01/10 02:25:51;;;;;;;11.90;5.97;;;10.10;46.90;;;;;;5074824;28;20434;-78
2024/01/10 02:28:18;;;;;;;10.87;6.00;;;10.10;47.10;;;;;;5072509;28;20441;-79
2024/01/10 02:30:47;;;;;;;9.27;5.50;;;10.10;46.90;;;;;;5073660;28;20461;-75
2024/01/10 02:33:15;;;;;;;8.17;5.63;;;10.10;47.10;;;;;;5074007;28;20465;-77
2024/01/10 02:35:43;;;;;;;8.90;5.80;;;10.10;46.90;;;;;;5069979;28;20491;-77
2024/01/10 02:38:11;;;;;;;7.87;5.70;;;10.10;47.00;;;;;;5081910;28;20505;-76
2024/01/10 02:40:39;;;;;;;9.83;5.10;;;10.00;46.90;;;;;;5071609;28;20429;-78
2024/01/10 02:43:09;;;;;;;7.33;5.50;;;10.00;47.00;;;;;;5072465;28;20465;-77
2024/01/10 02:45:37;;;;;;;8.07;5.37;;;10.10;47.00;;;;;;5073419;28;20484;-77
2024/01/10 02:48:06;;;;;;;9.90;5.83;;;10.00;47.00;;;;;;5073704;28;20449;-77
2024/01/10 02:50:34;;;;;;;10.37;6.00;;;10.00;47.00;;;;;;5073513;28;20433;-78
2024/01/10 02:53:02;;;;;;;8.57;5.83;;;10.10;47.00;;;;;;5066373;28;20516;-77
2024/01/10 02:55:30;;;;;;;6.40;4.77;;;10.00;47.00;;;;;;5063853;28;20434;-78
2024/01/10 02:57:57;;;;;;;10.27;5.40;;;10.00;46.90;;;;;;5073631;28;20474;-77
2024/01/10 03:00:27;;;;;;;6.83;5.20;;;10.00;46.90;;;;;;5073106;28;20433;-76
2024/01/10 03:02:55;;;;;;;8.00;4.97;;;10.00;47.00;;;;;;5072149;28;20520;-77
2024/01/10 03:05:22;;;;;;;9.60;5.63;;;10.00;47.00;;;;;;5073385;28;20521;-79
2024/01/10 03:07:50;;;;;;;14.50;5.40;;;10.00;47.00;;;;;;5073458;28;20534;-76
2024/01/10 03:10:18;;;;;;;7.80;6.00;;;10.00;47.10;;;;;;5073263;28;20438;-77
2024/01/10 03:12:47;;;;;;;7.90;5.20;;;10.00;47.00;;;;;;5073269;28;20500;-77
2024/01/10 03:15:15;;;;;;;8.57;5.50;;;9.90;47.90;;;;;;5072804;28;20528;-77
2024/01/10 03:17:44;;;;;;;6.27;4.80;;;9.90;47.80;;;;;;5070768;28;20509;-77
2024/01/10 03:20:12;;;;;;;8.27;5.30;;;9.90;47.90;;;;;;5072117;28;20437;-77
2024/01/10 03:22:40;;;;;;;7.20;5.27;;;9.90;47.90;;;;;;5073078;28;20534;-77
2024/01/10 03:25:08;;;;;;;8.03;5.60;;;9.90;47.90;;;;;;5073109;28;20465;-76
2024/01/10 03:27:36;;;;;;;5.80;4.63;;;9.90;47.90;;;;;;5072740;28;20521;-77
2024/01/10 03:30:05;;;;;;;5.70;4.53;;;9.90;47.90;;;;;;5072249;28;20489;-77
2024/01/10 03:32:33;;;;;;;6.63;4.90;;;9.90;47.80;;;;;;5072905;28;20513;-75
2024/01/10 03:35:02;;;;;;;7.70;4.70;;;9.90;47.90;;;;;;5073103;28;20438;-76
2024/01/10 03:37:30;;;;;;;7.00;5.13;;;9.90;47.90;;;;;;5072809;28;20531;-78
2024/01/10 03:39:59;;;;;;;8.13;5.00;;;9.90;47.90;;;;;;5066406;28;20491;-77
2024/01/10 03:42:27;;;;;;;8.07;5.77;;;9.80;47.70;;;;;;5069655;28;20473;-77
2024/01/10 03:44:55;;;;;;;8.70;5.63;;;9.80;47.90;;;;;;5072311;28;20438;-76
2024/01/10 03:47:23;;;;;;;8.67;5.30;;;9.90;47.90;;;;;;5072090;28;20434;-79
2024/01/10 03:49:50;;;;;;;7.10;5.60;;;9.80;47.80;;;;;;5063124;28;20496;-76
2024/01/10 03:52:20;;;;;;;8.40;5.90;;;9.80;48.50;;;;;;5089046;28;20452;-77
2024/01/10 03:54:48;;;;;;;6.37;4.60;;;9.80;47.80;;;;;;5093460;28;21022;-75
2024/01/10 03:57:16;;;;;;;8.23;5.27;;;9.80;47.90;;;;;;5093128;28;20524;-76
2024/01/10 03:59:43;;;;;;;7.10;5.23;;;9.80;47.70;;;;;;5062948;28;20522;-77
2024/01/10 04:02:11;;;;;;;8.23;5.50;;;9.80;47.80;;;;;;5052368;28;20531;-76
2024/01/10 04:04:40;;;;;;;7.60;5.03;;;9.80;47.80;;;;;;5052888;28;20474;-77
2024/01/10 04:07:08;;;;;;;11.67;7.33;;;9.80;47.90;;;;;;5053259;28;20886;-77
2024/01/10 04:09:38;;;;;;;20.57;10.00;;;9.80;47.80;;;;;;5052521;28;20528;-77
2024/01/10 04:12:06;;;;;;;20.53;10.63;;;9.70;47.80;;;;;;5052558;28;20545;-74
2024/01/10 04:14:35;;;;;;;19.40;10.17;;;9.70;47.80;;;;;;5055360;28;20457;-77
2024/01/10 04:17:04;;;;;;;15.53;9.00;;;9.80;47.90;;;;;;5071823;28;20475;-77
2024/01/10 04:19:32;;;;;;;20.83;11.27;;;9.70;47.70;;;;;;5072735;28;20569;-77
2024/01/10 04:22:00;;;;;;;20.40;11.70;;;9.70;48.40;;;;;;5071881;28;21011;-77
2024/01/10 04:24:28;;;;;;;21.73;11.77;;;9.70;47.90;;;;;;5072466;28;20485;-78
2024/01/10 04:26:58;;;;;;;24.47;13.07;;;9.70;47.80;;;;;;5071837;28;20449;-76
2024/01/10 04:29:25;;;;;;;24.17;12.70;;;9.70;47.80;;;;;;5071959;28;20433;-77
2024/01/10 04:31:53;;;;;;;24.50;12.77;;;9.60;47.80;;;;;;5070042;28;20481;-77
2024/01/10 04:34:22;;;;;;;28.80;14.10;;;9.70;47.90;;;;;;5056069;28;20484;-77
2024/01/10 04:36:51;;;;;;;22.93;13.07;;;9.60;47.80;;;;;;5047375;28;20470;-77
2024/01/10 04:39:19;;;;;;;23.40;12.77;;;9.60;47.70;;;;;;5051259;28;20502;-76
2024/01/10 04:41:47;;;;;;;30.53;13.90;;;9.60;47.80;;;;;;5062828;28;20500;-78
2024/01/10 04:44:17;;;;;;;25.57;13.00;;;9.60;47.90;;;;;;5071761;28;20509;-77
2024/01/10 04:46:45;;;;;;;24.57;13.37;;;9.60;47.60;;;;;;5071962;28;20503;-77
2024/01/10 04:49:13;;;;;;;26.30;12.70;;;9.60;47.80;;;;;;5071967;28;20438;-77
2024/01/10 04:51:41;;;;;;;26.97;13.70;;;9.60;47.90;;;;;;5071353;28;20448;-78
2024/01/10 04:54:09;;;;;;;22.67;11.73;;;9.60;47.70;;;;;;5066289;28;20450;-75
2024/01/10 04:56:38;;;;;;;27.53;13.03;;;9.60;47.90;;;;;;5052186;28;21019;-77
2024/01/10 04:59:06;;;;;;;24.93;12.43;;;9.60;47.80;;;;;;5051657;28;20474;-77
2024/01/10 05:01:36;;;;;;;25.37;12.80;;;9.60;47.90;;;;;;5051051;28;20450;-77
2024/01/10 05:04:07;;;;;;;22.53;12.50;;;9.60;47.90;;;;;;5053537;28;20438;-77
2024/01/10 05:06:36;;;;;;;22.83;11.77;;;9.60;47.80;;;;;;5073203;28;20876;-78
2024/01/10 05:09:04;;;;;;;21.97;11.87;;;9.60;47.70;;;;;;5055026;28;20525;-77
2024/01/10 05:11:34;;;;;;;22.20;12.10;;;9.60;47.90;;;;;;5057254;28;20508;-76
2024/01/10 05:14:02;;;;;;;22.00;11.93;;;9.50;47.80;;;;;;5071957;28;20442;-77
2024/01/10 05:16:31;;;;;;;23.57;12.30;;;9.50;47.70;;;;;;5057060;28;20542;-77
2024/01/10 05:19:02;;;;;;;21.87;11.23;;;9.50;47.90;;;;;;5085317;23;20576;-74
2024/01/10 05:21:31;;;;;;;23.17;11.30;;;9.50;47.80;;;;;;5064213;28;20971;-75
2024/01/10 05:23:59;;;;;;;19.17;10.50;;;9.50;47.80;;;;;;5061721;28;20581;-75
2024/01/10 05:26:27;;;;;;;18.50;10.20;;;9.50;47.90;;;;;;5064542;28;20567;-75
2024/01/10 05:28:55;;;;;;;19.20;10.40;;;9.50;47.80;;;;;;5055418;28;20473;-75
2024/01/10 05:31:23;;;;;;;18.67;10.83;;;9.50;47.80;;;;;;5067441;28;20452;-75
2024/01/10 05:33:52;;;;;;;18.00;10.10;;;9.50;47.80;;;;;;5064218;28;20507;-74
2024/01/10 05:36:24;;;;;;;17.77;10.00;;;9.50;47.80;;;;;;5063286;28;20473;-74
2024/01/10 05:38:52;;;;;;;18.37;10.30;;;9.50;48.00;;;;;;5065740;28;21002;-74
2024/01/10 05:41:19;;;;;;;17.47;9.90;;;9.50;47.90;;;;;;5056034;28;20442;-74
2024/01/10 05:43:48;;;;;;;16.10;9.00;;;9.50;47.90;;;;;;5064381;28;20438;-74
2024/01/10 05:46:16;;;;;;;17.90;9.87;;;9.50;48.00;;;;;;5052856;28;20461;-74
2024/01/10 05:48:44;;;;;;;15.97;9.23;;;9.50;47.90;;;;;;5050889;28;20454;-74
2024/01/10 05:51:13;;;;;;;15.40;8.90;;;9.50;48.10;;;;;;5059922;28;20504;-74
2024/01/10 05:53:42;;;;;;;16.07;9.10;;;9.50;48.00;;;;;;5052608;28;20520;-74
2024/01/10 05:56:12;;;;;;;17.03;8.70;;;9.50;48.00;;;;;;5051379;28;20450;-74
2024/01/10 05:58:41;;;;;;;17.33;9.47;;;9.50;47.90;;;;;;5062635;28;20470;-74
2024/01/10 06:01:09;;;;;;;14.60;8.23;;;9.40;48.00;;;;;;5054532;28;20456;-75
2024/01/10 06:03:38;;;;;;;15.17;8.53;;;9.40;48.00;;;;;;5058686;28;20453;-74
2024/01/10 06:06:07;;;;;;;13.93;7.87;;;9.40;48.00;;;;;;5068076;28;20442;-75
2024/01/10 06:08:35;;;;;;;19.07;9.90;;;9.40;48.00;;;;;;5062668;28;20458;-75
2024/01/10 06:11:08;;;;;;;18.20;9.03;;;9.40;48.00;;;;;;5068411;28;20445;-74
2024/01/10 06:13:37;;;;;;;12.87;7.40;;;9.40;48.00;;;;;;5062168;28;20446;-74
2024/01/10 06:16:20;;;;;;;17.03;8.37;;;9.40;48.00;;;;;;5056795;28;20534;-75
2024/01/10 06:18:48;;;;;;;14.93;7.83;;;9.40;48.00;;;;;;5067931;28;20479;-74
2024/01/10 06:21:17;;;;;;;12.90;7.57;;;9.40;47.90;;;;;;5056971;28;20459;-74
2024/01/10 06:23:45;;;;;;;15.27;8.07;;;9.40;48.00;;;;;;5062511;28;20517;-74
2024/01/10 06:26:14;;;;;;;13.10;7.73;;;9.40;47.90;;;;;;5064163;28;20495;-74
2024/01/10 06:28:43;;;;;;;14.23;8.03;;;9.40;47.90;;;;;;5054085;28;20467;-74
2024/01/10 06:31:11;;;;;;;12.77;7.37;;;9.40;48.00;;;;;;5056974;28;20483;-75
2024/01/10 06:33:40;;;;;;;12.97;7.30;;;9.40;48.00;;;;;;5066103;28;20463;-74
2024/01/10 06:36:08;;;;;;;12.50;7.57;;;9.40;48.00;;;;;;5051033;28;20513;-74
2024/01/10 06:38:36;;;;;;;11.17;7.17;;;9.40;48.00;;;;;;5058710;28;20446;-74
2024/01/10 06:41:08;;;;;;;15.23;8.03;;;9.40;48.00;;;;;;5058245;28;20539;-74
2024/01/10 06:43:38;;;;;;;13.67;7.40;;;9.30;48.00;;;;;;5063576;28;20434;-74
2024/01/10 06:46:07;;;;;;;12.83;7.13;;;9.40;48.60;;;;;;5069059;28;20442;-74
2024/01/10 06:48:34;;;;;;;14.67;7.60;;;9.30;47.70;;;;;;5067770;28;20474;-74
2024/01/10 06:51:10;;;;;;;10.50;6.87;;;9.30;48.00;;;;;;5068310;28;20446;-73
2024/01/10 06:53:39;;;;;;;14.50;7.40;;;9.30;48.00;;;;;;5068658;28;20442;-74
2024/01/10 06:56:07;;;;;;;12.17;6.93;;;9.30;48.00;;;;;;5054144;28;20537;-74
2024/01/10 06:58:39;;;;;;;12.13;6.60;;;9.30;48.00;;;;;;5061222;28;20471;-74
2024/01/10 07:01:13;;;;;;;12.13;6.90;;;9.30;47.80;;;;;;5060422;28;20438;-74
2024/01/10 07:03:42;;;;;;;10.13;6.20;;;9.30;48.10;;;;;;5057961;28;20443;-74
2024/01/10 07:06:14;;;;;;;13.83;7.60;;;9.30;47.90;;;;;;5058047;28;20530;-75
2024/01/10 07:08:44;;;;;;;12.87;6.80;;;9.30;48.00;;;;;;5068771;28;20497;-75
2024/01/10 07:11:12;;;;;;;12.93;6.57;;;9.30;48.10;;;;;;5061966;28;20507;-75
2024/01/10 07:13:42;;;;;;;10.20;6.43;;;9.30;48.00;;;;;;5062868;28;20472;-75
2024/01/10 07:16:10;;;;;;;10.20;6.60;;;9.30;48.10;;;;;;5065994;28;20449;-75
2024/01/10 07:18:38;;;;;;;9.53;6.20;;;9.30;48.00;;;;;;5065125;28;20520;-76
2024/01/10 07:21:09;;;;;;;10.00;6.50;;;9.30;48.00;;;;;;5062860;28;20478;-76
2024/01/10 07:23:38;;;;;;;11.57;6.87;;;9.30;48.10;;;;;;5064461;28;20473;-75
2024/01/10 07:26:06;;;;;;;9.73;6.23;;;9.30;48.00;;;;;;5070548;28;20429;-75
2024/01/10 07:28:33;;;;;;;8.07;5.50;;;9.30;48.20;;;;;;5058590;28;20987;-75
2024/01/10 07:31:03;;;;;;;11.90;6.60;;;9.30;48.10;;;;;;5070653;28;20509;-75
2024/01/10 07:33:31;;;;;;;12.13;6.10;;;9.20;48.00;;;;;;5062505;28;20469;-76
2024/01/10 07:35:59;;;;;;;10.17;5.97;;;9.30;48.20;;;;;;5065261;28;20441;-76
2024/01/10 07:38:27;;;;;;;8.77;6.00;;;9.30;48.20;;;;;;5064611;28;20536;-76
2024/01/10 07:40:55;;;;;;;9.93;5.97;;;9.30;48.20;;;;;;5060856;28;20461;-77
2024/01/10 07:43:23;;;;;;;8.50;5.50;;;9.30;48.10;;;;;;5055652;28;20442;-77
2024/01/10 07:45:52;;;;;;;8.90;5.30;;;9.30;48.20;;;;;;5061443;28;20513;-79
2024/01/10 07:48:24;;;;;;;9.37;6.07;;;9.30;48.20;;;;;;5066751;28;20442;-79
2024/01/10 07:50:58;;;;;;;8.63;5.83;;;9.30;48.20;;;;;;5061038;28;20477;-80
2024/01/10 07:53:29;;;;;;;11.87;6.33;;;9.30;48.20;;;;;;5066865;28;20466;-79
2024/01/10 07:56:02;;;;;;;11.83;6.30;;;9.30;48.20;;;;;;5074791;28;20450;-82
2024/01/10 07:58:40;;;;;;;11.47;6.50;;;9.30;48.10;;;;;;5072847;28;20462;-79
2024/01/10 08:01:10;;;;;;;10.03;5.67;;;9.30;47.90;;;;;;5062476;28;20509;-77
2024/01/10 08:03:41;;;;;;;9.47;6.10;;;9.30;47.80;;;;;;5060175;28;20438;-77
2024/01/10 08:06:10;;;;;;;11.87;6.97;;;9.20;47.60;;;;;;5068407;28;20458;-79
2024/01/10 08:08:50;;;;;;;11.53;7.00;;;9.20;47.40;;;;;;5063460;28;20478;-78
2024/01/10 08:11:18;;;;;;;11.17;6.60;;;9.20;47.30;;;;;;5067748;28;20464;-78
2024/01/10 08:13:54;;;;;;;10.10;6.30;;;9.20;47.30;;;;;;5068574;28;20491;-78
2024/01/10 08:16:45;;;;;;;12.50;7.43;;;9.30;47.10;;;;;;5063599;28;20419;-79
2024/01/10 08:19:25;;;;;;;12.03;7.37;;;9.30;47.00;;;;;;5085898;28;20465;-77
2024/01/10 08:22:02;;;;;;;11.63;6.80;;;9.30;47.00;;;;;;5080012;28;20533;-78
2024/01/10 08:24:30;;;;;;;11.83;6.77;;;9.30;47.00;;;;;;5077380;28;20462;-76
2024/01/10 08:26:59;;;;;;;10.60;6.50;;;9.40;47.20;;;;;;5066537;28;20437;-76
2024/01/10 08:29:31;;;;;;;9.10;6.23;;;9.40;47.30;;;;;;5065058;28;20458;-77
2024/01/10 08:32:08;;;;;;;16.10;7.20;;;9.40;47.30;;;;;;5065322;28;20441;-78
2024/01/10 08:34:38;;;;;;;9.93;6.50;;;9.50;47.50;;;;;;5064301;28;20465;-77
2024/01/10 08:37:06;;;;;;;8.93;5.63;;;9.50;47.70;;;;;;5069008;28;20442;-77
2024/01/10 08:39:34;;;;;;;11.77;6.57;;;9.50;47.80;;;;;;5063922;28;20497;-81
2024/01/10 08:42:02;;;;;;;10.70;6.10;;;9.60;48.00;;;;;;5060479;28;20453;-77
2024/01/10 08:44:30;;;;;;;11.20;6.20;;;9.70;48.20;;;;;;5070940;28;20468;-78
2024/01/10 08:46:58;;;;;;;10.80;6.40;;;9.70;48.50;;;;;;5071506;28;20441;-77
2024/01/10 08:49:26;;;;;;;35.10;18.03;;;9.90;48.80;;;;;;5069697;28;20570;-78
2024/01/10 08:51:56;;;;;;;42.20;21.20;;;9.10;44.40;;;;;;5055033;28;20438;-78
2024/01/10 08:54:25;;;;;;;43.60;22.53;;;7.90;45.30;;;;;;5062458;28;20437;-75
2024/01/10 08:56:52;;;;;;;42.83;20.43;;;7.50;46.10;;;;;;5057172;28;20484;-76
2024/01/10 08:59:20;;;;;;;38.33;19.60;;;7.30;47.30;;;;;;5066828;28;20461;-77
2024/01/10 09:01:49;;;;;;;41.40;19.90;;;6.70;46.00;;;;;;5051307;28;20497;-77
2024/01/10 09:04:17;;;;;;;42.20;19.53;;;6.00;46.90;;;;;;5061633;28;20442;-77
2024/01/10 09:06:48;;;;;;;35.17;16.90;;;5.60;47.30;;;;;;5064478;28;20438;-77
2024/01/10 09:09:20;;;;;;;35.00;16.60;;;6.60;58.20;;;;;;5064714;28;20493;-75
2024/01/10 09:11:48;;;;;;;33.83;17.63;;;8.20;51.90;;;;;;5064270;28;20521;-76
2024/01/10 09:14:16;;;;;;;35.23;17.70;;;8.70;48.40;;;;;;5066145;28;20442;-76
2024/01/10 09:16:44;;;;;;;36.20;18.03;;;9.10;47.30;;;;;;5064018;28;20434;-76
2024/01/10 09:19:12;;;;;;;36.00;18.30;;;9.30;46.20;;;;;;5059889;28;20478;-77
2024/01/10 09:21:43;;;;;;;35.80;17.20;;;9.50;45.60;;;;;;5065432;28;20569;-76
2024/01/10 09:24:14;;;;;;;32.50;17.03;;;9.50;45.10;;;;;;5068121;28;20449;-76
2024/01/10 09:26:57;;;;;;;32.53;17.20;;;9.50;44.90;;;;;;5066757;28;20940;-76
2024/01/10 09:29:25;;;;;;;34.50;17.73;;;9.60;44.40;;;;;;5065515;28;20466;-76
2024/01/10 09:31:54;;;;;;;34.20;17.80;;;9.70;44.60;;;;;;5062209;28;20541;-76
2024/01/10 09:34:22;;;;;;;36.57;17.83;;;9.80;44.20;;;;;;5062989;28;20472;-76
2024/01/10 09:36:52;;;;;;;37.93;18.00;;;9.90;44.60;;;;;;5064090;28;20545;-75
2024/01/10 09:39:20;;;;;;;34.70;17.63;;;10.00;43.10;;;;;;5059466;28;20482;-76
2024/01/10 09:41:50;;;;;;;35.13;18.73;;;10.00;42.80;;;;;;5054879;28;20458;-76
2024/01/10 09:44:21;;;;;;;32.27;17.63;;;10.10;42.90;;;;;;5059397;28;20450;-76
2024/01/10 09:46:52;;;;;;;32.60;16.53;;;10.10;42.40;;;;;;5061652;28;20492;-75
2024/01/10 09:49:22;;;;;;;32.60;16.57;;;10.10;42.30;;;;;;5061667;28;20465;-76
2024/01/10 09:51:51;;;;;;;32.07;16.83;;;10.00;42.10;;;;;;5060946;28;20522;-77
2024/01/10 09:54:19;;;;;;;29.43;16.90;;;9.90;43.40;;;;;;5061820;28;20465;-76
2024/01/10 09:56:48;;;;;;;29.30;16.40;;;10.10;42.60;;;;;;5065366;28;20536;-76
2024/01/10 09:59:16;;;;;;;32.13;16.63;;;10.10;42.50;;;;;;5065576;28;20454;-77
2024/01/10 10:01:46;;;;;;;30.60;15.73;;;10.10;42.20;;;;;;5061100;28;20548;-77
2024/01/10 10:04:15;;;;;;;35.70;17.93;;;10.30;42.80;;;;;;5056804;28;20500;-76
2024/01/10 10:06:43;;;;;;;36.80;19.10;;;10.60;43.10;;;;;;5054477;28;20514;-76
2024/01/10 10:09:11;;;;;;;37.03;20.13;;;11.00;43.10;;;;;;5063312;28;20520;-75
2024/01/10 10:11:40;;;;;;;36.57;19.00;;;11.20;42.90;;;;;;5071152;28;20466;-76
2024/01/10 10:14:15;;;;;;;33.33;17.70;;;11.20;41.90;;;;;;5066326;28;20533;-77
2024/01/10 10:16:43;;;;;;;31.80;16.33;;;11.20;42.10;;;;;;5063478;28;20445;-77
2024/01/10 10:19:13;;;;;;;26.83;15.50;;;11.40;41.60;;;;;;5062542;28;20480;-77
2024/01/10 10:21:51;;;;;;;29.53;15.90;;;11.30;41.40;;;;;;5059004;28;20526;-77
2024/01/10 10:24:19;;;;;;;25.10;14.33;;;11.50;41.90;;;;;;5061312;28;20437;-78
2024/01/10 10:26:49;;;;;;;25.40;14.43;;;11.70;41.50;;;;;;5069912;28;20433;-76
2024/01/10 10:29:18;;;;;;;25.80;14.40;;;11.80;41.00;;;;;;5065407;28;20453;-78
2024/01/10 10:31:48;;;;;;;23.90;13.60;;;12.00;41.00;;;;;;5067720;28;20427;-76
2024/01/10 10:34:18;;;;;;;26.90;14.17;;;12.20;40.40;;;;;;5060943;28;20937;-78
2024/01/10 10:36:47;;;;;;;23.10;14.07;;;12.50;40.80;;;;;;5067393;28;20442;-76
2024/01/10 10:39:17;;;;;;;23.70;13.93;;;12.70;40.40;;;;;;5065687;28;20473;-76
2024/01/10 10:41:45;;;;;;;23.93;14.53;;;12.80;40.30;;;;;;5069060;28;20576;-76
2024/01/10 10:44:13;;;;;;;26.63;14.30;;;12.90;39.80;;;;;;5064929;28;20514;-76
2024/01/10 10:46:42;;;;;;;24.70;13.83;;;13.00;39.70;;;;;;5066085;28;20450;-77
2024/01/10 10:49:12;;;;;;;24.50;13.77;;;13.20;39.70;;;;;;5070875;28;20465;-76
2024/01/10 10:51:42;;;;;;;21.07;12.83;;;13.40;39.40;;;;;;5058459;28;20449;-77
2024/01/10 10:54:10;;;;;;;22.83;13.20;;;13.50;39.00;;;;;;5070597;28;20496;-77
2024/01/10 10:56:38;;;;;;;20.47;12.30;;;13.50;38.50;;;;;;5063451;28;20849;-77
2024/01/10 10:59:06;;;;;;;20.90;12.50;;;13.60;38.30;;;;;;5066478;28;20552;-77
2024/01/10 11:01:34;;;;;;;20.20;12.20;;;13.80;38.60;;;;;;5064268;28;20470;-77
2024/01/10 11:04:03;;;;;;;24.07;14.00;;;14.10;38.20;;;;;;5067898;28;20484;-76
2024/01/10 11:06:32;;;;;;;25.17;15.00;;;14.20;38.10;;;;;;5063227;28;20448;-77
2024/01/10 11:09:03;;;;;;;25.73;15.20;;;14.50;38.20;;;;;;5065392;28;20496;-76
2024/01/10 11:11:38;;;;;;;21.80;12.13;;;14.80;38.00;;;;;;5057981;28;20521;-76
2024/01/10 11:14:15;;;;;;;20.83;12.83;;;14.80;36.80;;;;;;5064613;28;20468;-76
2024/01/10 11:17:06;;;;;;;20.13;12.30;;;14.90;36.60;;;;;;5068080;28;20536;-76
2024/01/10 11:20:20;;;;;;;23.67;13.47;;;15.00;36.10;;;;;;5060617;28;20472;-77
2024/01/10 11:23:27;;;;;;;19.07;11.30;;;15.30;36.10;;;;;;5054318;28;20466;-75
2024/01/10 11:25:58;;;;;;;18.67;11.13;;;15.70;35.40;;;;;;4999083;28;20500;-76
2024/01/10 11:28:27;;;;;;;18.10;11.30;;;15.70;34.60;;;;;;5056237;28;20588;-76
2024/01/10 11:30:56;;;;;;;20.50;11.93;;;16.00;34.40;;;;;;5071472;28;20445;-75
2024/01/10 11:33:27;;;;;;;19.87;11.90;;;16.20;34.30;;;;;;5067552;28;20508;-75
2024/01/10 11:36:10;;;;;;;17.60;10.97;;;16.20;33.30;;;;;;5066903;28;20446;-76
2024/01/10 11:38:49;;;;;;;19.37;11.67;;;16.20;33.50;;;;;;5057940;28;20466;-77
2024/01/10 11:41:23;;;;;;;17.30;11.70;;;16.20;33.10;;;;;;5060659;28;20465;-76
2024/01/10 11:44:40;;;;;;;17.83;11.73;;;16.50;33.50;;;;;;5067543;28;20446;-76
2024/01/10 11:47:08;;;;;;;18.00;11.43;;;16.70;33.30;;;;;;5067227;28;20458;-76
2024/01/10 11:49:36;;;;;;;17.63;10.90;;;16.80;32.90;;;;;;5073680;28;20445;-76
2024/01/10 11:52:04;;;;;;;16.33;11.00;;;17.00;33.00;;;;;;5072089;28;20477;-77
2024/01/10 11:54:50;;;;;;;17.10;10.40;;;17.10;32.30;;;;;;5082587;28;20445;-77
2024/01/10 11:57:23;;;;;;;15.03;10.43;;;17.30;32.30;;;;;;5067226;28;20438;-77
2024/01/10 11:59:52;;;;;;;14.83;10.10;;;17.30;31.90;;;;;;5060495;28;20427;-77
2024/01/10 12:02:20;;;;;;;16.40;10.00;;;17.50;32.10;;;;;;5061190;28;20516;-76
2024/01/10 12:04:48;;;;;;;17.60;10.17;;;17.70;31.50;;;;;;5066080;28;20450;-76
2024/01/10 12:07:17;;;;;;;25.53;14.47;;;17.80;31.30;;;;;;5073776;28;20446;-77
2024/01/10 12:09:47;;;;;;;26.90;16.07;;;16.60;28.70;;;;;;5059774;28;20496;-75
2024/01/10 12:12:15;;;;;;;23.40;13.87;;;16.30;31.80;;;;;;5064756;28;20435;-75
2024/01/10 12:14:45;;;;;;;21.60;12.83;;;16.90;32.60;;;;;;5064837;28;20492;-76
2024/01/10 12:17:14;;;;;;;17.17;10.77;;;17.20;31.20;;;;;;5056767;28;20437;-76
2024/01/10 12:19:44;;;;;;;18.83;11.90;;;17.40;30.30;;;;;;5056960;28;20500;-76
2024/01/10 12:22:14;;;;;;;16.73;9.97;;;17.70;29.80;;;;;;5064589;28;20469;-76
2024/01/10 12:24:47;;;;;;;14.80;10.07;;;17.90;29.90;;;;;;5059536;28;20449;-76
2024/01/10 12:27:17;;;;;;;15.40;10.10;;;18.00;29.00;;;;;;5052346;28;20467;-76
2024/01/10 12:29:50;;;;;;;14.97;10.37;;;18.40;29.20;;;;;;5069292;28;20535;-76
2024/01/10 12:32:20;;;;;;;15.57;9.70;;;18.40;28.70;;;;;;5055002;28;20441;-76
2024/01/10 12:34:49;;;;;;;13.73;9.83;;;18.40;28.90;;;;;;5065535;28;20450;-76
2024/01/10 12:37:19;;;;;;;15.23;9.63;;;18.70;28.70;;;;;;5054939;28;20443;-76
2024/01/10 12:39:47;;;;;;;15.30;10.50;;;18.70;28.20;;;;;;5066367;28;20529;-76
2024/01/10 12:42:16;;;;;;;16.97;11.60;;;18.70;28.30;;;;;;5056051;28;20491;-77
2024/01/10 12:44:46;;;;;;;25.07;15.10;;;18.70;28.20;;;;;;5065183;28;20441;-77
2024/01/10 12:47:20;;;;;;;20.00;12.70;;;18.90;28.50;;;;;;5056433;28;20446;-77
2024/01/10 12:49:49;;;;;;;19.80;13.23;;;18.90;28.10;;;;;;5068028;28;20449;-78
2024/01/10 12:52:19;;;;;;;26.13;16.67;;;18.80;27.80;;;;;;5064439;28;20438;-77
2024/01/10 12:54:50;;;;;;;22.87;14.53;;;18.90;27.80;;;;;;5069755;28;20457;-76